createdAt,value
2019-04-04T00:00:35.076Z,90.84
2019-04-04T00:01:35.257Z,91.22
2019-04-04T00:02:35.328Z,91.32
2019-04-04T00:03:35.459Z,90.94
2019-04-04T00:04:35.613Z,90.66
2019-04-04T00:05:35.743Z,90.75
2019-04-04T00:06:35.862Z,90.56
2019-04-04T00:07:36.004Z,90.84
2019-04-04T00:08:36.134Z,91.03
2019-04-04T00:09:36.259Z,90.47
2019-04-04T00:10:36.383Z,91.03
2019-04-04T00:11:36.923Z,90.94
2019-04-04T00:12:37.027Z,90.66
2019-04-04T00:13:36.781Z,90.47
2019-04-04T00:14:36.927Z,90.18
2019-04-04T00:15:37.047Z,90.94
2019-04-04T00:16:37.174Z,90.75
2019-04-04T00:17:37.302Z,91.22
2019-04-04T00:18:37.427Z,91.28
2019-04-04T00:19:37.553Z,91.42
2019-04-04T00:20:37.677Z,91.28
2019-04-04T00:21:37.807Z,91.94
2019-04-04T00:22:37.949Z,92.32
2019-04-04T00:23:38.594Z,92.03
2019-04-04T00:24:39.589Z,91.75
2019-04-04T00:25:40.302Z,91.94
2019-04-04T00:26:41.661Z,91.85
2019-04-04T00:27:38.588Z,91.85
2019-04-04T00:28:38.732Z,91.51
2019-04-04T00:29:38.847Z,91.85
2019-04-04T00:30:39.016Z,91.75
2019-04-04T00:31:39.100Z,91.03
2019-04-04T00:32:39.236Z,91.22
2019-04-04T00:33:39.365Z,90.84
2019-04-04T00:34:39.499Z,91.37
2019-04-04T00:35:39.623Z,90.70
2019-04-04T00:36:39.755Z,91.28
2019-04-04T00:37:41.131Z,91.28
2019-04-04T00:38:40.031Z,91.08
2019-04-04T00:39:40.469Z,91.75
2019-04-04T00:40:41.987Z,91.56
2019-04-04T00:41:40.437Z,91.37
2019-04-04T00:42:40.563Z,91.75
2019-04-04T00:43:40.697Z,91.75
2019-04-04T00:44:40.813Z,92.03
2019-04-04T00:45:40.958Z,92.41
2019-04-04T00:46:41.089Z,92.80
2019-04-04T00:47:41.209Z,92.41
2019-04-04T00:48:41.342Z,92.89
2019-04-04T00:49:41.453Z,92.61
2019-04-04T00:50:41.580Z,92.61
2019-04-04T00:51:41.716Z,92.99
2019-04-04T00:52:41.843Z,92.80
2019-04-04T00:53:43.039Z,92.61
2019-04-04T00:54:43.033Z,92.89
2019-04-04T00:55:42.202Z,93.18
2019-04-04T00:56:42.354Z,93.18
2019-04-04T00:57:42.462Z,92.80
2019-04-04T00:58:42.587Z,92.80
2019-04-04T00:59:42.717Z,92.32
2019-04-04T01:00:42.871Z,92.13
2019-04-04T01:01:42.995Z,92.32
2019-04-04T01:02:43.129Z,92.32
2019-04-04T01:03:43.248Z,92.32
2019-04-04T01:04:43.405Z,92.80
2019-04-04T01:05:43.521Z,92.41
2019-04-04T01:06:43.651Z,91.94
2019-04-04T01:07:43.781Z,91.51
2019-04-04T01:08:43.906Z,91.13
2019-04-04T01:09:44.055Z,91.13
2019-04-04T01:10:44.181Z,90.84
2019-04-04T01:11:44.324Z,90.18
2019-04-04T01:12:44.443Z,90.18
2019-04-04T01:13:44.583Z,89.80
2019-04-04T01:14:44.699Z,89.61
2019-04-04T01:15:44.872Z,89.89
2019-04-04T01:16:44.978Z,89.99
2019-04-04T01:17:45.105Z,89.32
2019-04-04T01:18:45.233Z,89.51
2019-04-04T01:19:48.724Z,89.61
2019-04-04T01:20:45.513Z,89.47
2019-04-04T01:21:45.640Z,89.04
2019-04-04T01:22:45.765Z,88.60
2019-04-04T01:23:45.915Z,88.32
2019-04-04T01:24:46.044Z,88.32
2019-04-04T01:25:46.166Z,87.94
2019-04-04T01:26:46.310Z,88.13
2019-04-04T01:27:46.459Z,87.99
2019-04-04T01:28:46.560Z,88.09
2019-04-04T01:29:46.683Z,87.90
2019-04-04T01:30:46.809Z,88.28
2019-04-04T01:31:46.943Z,88.46
2019-04-04T01:32:48.241Z,88.09
2019-04-04T01:33:47.214Z,87.80
2019-04-04T01:34:47.335Z,88.46
2019-04-04T01:35:47.460Z,88.46
2019-04-04T01:36:47.589Z,88.28
2019-04-04T01:37:47.716Z,88.37
2019-04-04T01:38:47.841Z,88.37
2019-04-04T01:39:47.969Z,88.94
2019-04-04T01:40:48.136Z,89.14
2019-04-04T01:41:48.253Z,88.94
2019-04-04T01:42:48.382Z,89.04
2019-04-04T01:43:48.506Z,89.04
2019-04-04T01:44:48.656Z,89.04
2019-04-04T01:45:48.790Z,89.23
2019-04-04T01:46:48.914Z,88.94
2019-04-04T01:47:49.049Z,88.18
2019-04-04T01:48:50.066Z,88.28
2019-04-04T01:49:49.969Z,88.18
2019-04-04T01:50:49.429Z,88.75
2019-04-04T01:51:49.626Z,89.23
2019-04-04T01:52:49.703Z,89.04
2019-04-04T01:53:49.837Z,89.04
2019-04-04T01:54:49.989Z,88.28
2019-04-04T01:55:50.106Z,88.37
2019-04-04T01:56:50.245Z,88.28
2019-04-04T01:57:50.383Z,88.09
2019-04-04T01:58:50.498Z,87.90
2019-04-04T01:59:50.630Z,88.18
2019-04-04T02:00:50.755Z,87.80
2019-04-04T02:01:50.894Z,87.42
2019-04-04T02:02:51.825Z,87.61
2019-04-04T02:03:51.770Z,87.61
2019-04-04T02:04:51.306Z,87.61
2019-04-04T02:05:51.427Z,87.71
2019-04-04T02:06:51.557Z,88.09
2019-04-04T02:07:51.682Z,88.28
2019-04-04T02:08:51.813Z,88.18
2019-04-04T02:09:51.949Z,88.28
2019-04-04T02:10:52.085Z,88.09
2019-04-04T02:11:52.204Z,87.80
2019-04-04T02:12:52.344Z,88.46
2019-04-04T02:13:52.467Z,88.46
2019-04-04T02:14:52.595Z,88.28
2019-04-04T02:15:52.730Z,87.99
2019-04-04T02:16:52.883Z,88.09
2019-04-04T02:17:53.470Z,87.52
2019-04-04T02:18:53.886Z,87.27
2019-04-04T02:19:55.605Z,87.04
2019-04-04T02:20:53.420Z,87.37
2019-04-04T02:21:53.548Z,86.94
2019-04-04T02:22:53.674Z,86.99
2019-04-04T02:23:53.799Z,86.70
2019-04-04T02:24:53.941Z,86.70
2019-04-04T02:25:54.065Z,86.70
2019-04-04T02:26:54.198Z,86.32
2019-04-04T02:27:54.320Z,86.42
2019-04-04T02:28:54.490Z,86.04
2019-04-04T02:29:54.599Z,85.80
2019-04-04T02:30:54.726Z,85.66
2019-04-04T02:31:54.885Z,85.71
2019-04-04T02:32:59.405Z,86.22
2019-04-04T02:33:55.138Z,86.22
2019-04-04T02:34:55.270Z,85.71
2019-04-04T02:35:55.412Z,85.56
2019-04-04T02:36:55.534Z,85.52
2019-04-04T02:37:56.168Z,85.47
2019-04-04T02:38:57.590Z,85.28
2019-04-04T02:39:55.933Z,85.14
2019-04-04T02:40:56.055Z,85.42
2019-04-04T02:41:56.189Z,85.33
2019-04-04T02:42:56.309Z,85.24
2019-04-04T02:43:59.331Z,85.24
2019-04-04T02:44:56.590Z,85.33
2019-04-04T02:45:56.712Z,85.24
2019-04-04T02:46:56.840Z,84.28
2019-04-04T02:47:56.982Z,84.47
2019-04-04T02:48:57.172Z,84.95
2019-04-04T02:50:00.631Z,84.85
2019-04-04T02:50:57.357Z,84.56
2019-04-04T02:51:57.505Z,84.28
2019-04-04T02:52:57.629Z,84.47
2019-04-04T02:53:57.760Z,84.72
2019-04-04T02:54:58.570Z,85.00
2019-04-04T02:56:02.269Z,85.10
2019-04-04T02:56:58.133Z,85.38
2019-04-04T02:57:58.277Z,85.28
2019-04-04T02:58:58.401Z,85.86
2019-04-04T02:59:58.536Z,86.33
2019-04-04T03:01:00.404Z,86.43
2019-04-04T03:01:58.793Z,86.24
2019-04-04T03:02:58.914Z,86.14
2019-04-04T03:03:59.040Z,86.52
2019-04-04T03:04:59.321Z,86.33
2019-04-04T03:05:59.298Z,86.61
2019-04-04T03:06:59.415Z,86.99
2019-04-04T03:08:03.014Z,86.71
2019-04-04T03:08:59.698Z,86.90
2019-04-04T03:09:59.804Z,86.61
2019-04-04T03:10:59.921Z,86.66
2019-04-04T03:12:00.049Z,86.76
2019-04-04T03:13:00.190Z,86.47
2019-04-04T03:14:03.295Z,87.04
2019-04-04T03:15:00.443Z,86.66
2019-04-04T03:16:00.575Z,86.85
2019-04-04T03:17:00.699Z,85.76
2019-04-04T03:18:04.066Z,86.24
2019-04-04T03:19:00.980Z,87.09
2019-04-04T03:20:01.171Z,88.33
2019-04-04T03:21:01.296Z,88.52
2019-04-04T03:22:01.421Z,89.33
2019-04-04T03:23:01.574Z,89.42
2019-04-04T03:24:05.847Z,89.14
2019-04-04T03:25:01.828Z,90.28
2019-04-04T03:26:01.956Z,90.94
2019-04-04T03:27:02.082Z,90.85
2019-04-04T03:28:02.227Z,90.75
2019-04-04T03:29:05.468Z,90.85
2019-04-04T03:30:02.474Z,90.66
2019-04-04T03:31:03.743Z,90.56
2019-04-04T03:32:02.722Z,91.33
2019-04-04T03:33:02.865Z,91.52
2019-04-04T03:34:08.679Z,91.85
2019-04-04T03:35:03.125Z,91.42
2019-04-04T03:36:03.270Z,91.75
2019-04-04T03:37:06.050Z,91.99
2019-04-04T03:38:03.527Z,92.46
2019-04-04T03:39:03.651Z,92.56
2019-04-04T03:40:03.802Z,92.27
2019-04-04T03:41:03.914Z,92.37
2019-04-04T03:42:06.953Z,92.27
2019-04-04T03:43:04.166Z,92.46
2019-04-04T03:44:04.333Z,92.08
2019-04-04T03:45:04.503Z,92.42
2019-04-04T03:46:04.636Z,92.71
2019-04-04T03:47:04.764Z,93.04
2019-04-04T03:48:04.939Z,92.85
2019-04-04T03:49:05.058Z,92.85
2019-04-04T03:50:05.197Z,92.94
2019-04-04T03:51:05.421Z,92.56
2019-04-04T03:52:10.187Z,92.18
2019-04-04T03:53:05.592Z,92.08
2019-04-04T03:54:05.726Z,92.18
2019-04-04T03:55:05.835Z,91.33
2019-04-04T03:56:05.999Z,91.52
2019-04-04T03:57:06.114Z,91.80
2019-04-04T03:58:06.256Z,91.04
2019-04-04T03:59:06.371Z,91.04
2019-04-04T04:00:07.538Z,91.23
2019-04-04T04:01:06.668Z,91.13
2019-04-04T04:02:06.787Z,90.85
2019-04-04T04:03:06.937Z,90.94
2019-04-04T04:04:07.058Z,91.13
2019-04-04T04:05:07.181Z,91.42
2019-04-04T04:06:09.001Z,91.28
2019-04-04T04:07:07.472Z,91.66
2019-04-04T04:08:07.588Z,91.18
2019-04-04T04:09:07.710Z,90.56
2019-04-04T04:10:07.845Z,90.61
2019-04-04T04:11:08.034Z,90.80
2019-04-04T04:12:11.148Z,90.33
2019-04-04T04:13:08.302Z,90.42
2019-04-04T04:14:08.422Z,90.37
2019-04-04T04:15:08.555Z,90.28
2019-04-04T04:16:08.681Z,90.47
2019-04-04T04:17:09.137Z,90.80
2019-04-04T04:18:08.933Z,90.28
2019-04-04T04:19:09.069Z,90.66
2019-04-04T04:20:09.189Z,90.85
2019-04-04T04:21:10.947Z,90.56
2019-04-04T04:22:12.756Z,91.13
2019-04-04T04:23:09.570Z,91.52
2019-04-04T04:24:09.705Z,91.89
2019-04-04T04:25:09.829Z,91.89
2019-04-04T04:26:10.148Z,92.18
2019-04-04T04:27:14.460Z,92.18
2019-04-04T04:28:10.209Z,92.56
2019-04-04T04:29:10.335Z,92.85
2019-04-04T04:30:10.481Z,93.04
2019-04-04T04:31:14.352Z,92.75
2019-04-04T04:32:10.735Z,93.51
2019-04-04T04:33:10.863Z,92.75
2019-04-04T04:34:10.991Z,92.85
2019-04-04T04:35:11.117Z,93.41
2019-04-04T04:36:15.340Z,92.85
2019-04-04T04:37:11.372Z,93.04
2019-04-04T04:38:11.503Z,92.75
2019-04-04T04:39:11.631Z,92.56
2019-04-04T04:40:15.088Z,92.56
2019-04-04T04:41:11.887Z,91.99
2019-04-04T04:42:12.021Z,91.89
2019-04-04T04:43:15.279Z,91.80
2019-04-04T04:44:12.272Z,92.03
2019-04-04T04:45:12.655Z,92.32
2019-04-04T04:46:16.947Z,91.94
2019-04-04T04:47:12.658Z,91.75
2019-04-04T04:48:12.785Z,91.56
2019-04-04T04:49:12.919Z,91.47
2019-04-04T04:50:13.047Z,91.28
2019-04-04T04:51:13.169Z,91.37
2019-04-04T04:52:15.089Z,91.08
2019-04-04T04:53:18.299Z,91.37
2019-04-04T04:54:13.550Z,90.61
2019-04-04T04:55:13.682Z,90.89
2019-04-04T04:56:13.811Z,90.42
2019-04-04T04:57:28.415Z,90.75
2019-04-04T04:58:14.141Z,90.52
2019-04-04T04:59:14.127Z,90.28
2019-04-04T05:00:15.994Z,90.75
2019-04-04T05:01:17.984Z,90.66
2019-04-04T05:02:14.548Z,90.08
2019-04-04T05:03:14.678Z,90.08
2019-04-04T05:04:14.807Z,90.18
2019-04-04T05:05:14.932Z,89.80
2019-04-04T05:06:15.062Z,89.70
2019-04-04T05:07:15.183Z,89.89
2019-04-04T05:08:15.317Z,89.80
2019-04-04T05:09:15.440Z,89.61
2019-04-04T05:10:15.616Z,89.23
2019-04-04T05:11:18.651Z,89.42
2019-04-04T05:12:15.854Z,89.04
2019-04-04T05:13:15.975Z,89.04
2019-04-04T05:14:16.104Z,88.94
2019-04-04T05:15:16.231Z,88.18
2019-04-04T05:16:16.369Z,87.99
2019-04-04T05:17:16.491Z,88.28
2019-04-04T05:18:17.088Z,87.99
2019-04-04T05:19:17.110Z,87.99
2019-04-04T05:20:16.881Z,88.46
2019-04-04T05:21:24.996Z,88.56
2019-04-04T05:22:17.145Z,88.28
2019-04-04T05:23:17.274Z,88.28
2019-04-04T05:24:18.134Z,88.37
2019-04-04T05:25:17.550Z,88.37
2019-04-04T05:26:17.673Z,88.37
2019-04-04T05:27:17.795Z,88.46
2019-04-04T05:28:17.923Z,88.46
2019-04-04T05:29:18.056Z,88.46
2019-04-04T05:30:20.277Z,88.66
2019-04-04T05:31:18.807Z,88.46
2019-04-04T05:32:21.042Z,87.90
2019-04-04T05:33:18.574Z,88.18
2019-04-04T05:34:18.719Z,88.28
2019-04-04T05:35:18.826Z,88.09
2019-04-04T05:36:18.961Z,88.37
2019-04-04T05:37:19.080Z,88.37
2019-04-04T05:38:19.222Z,87.90
2019-04-04T05:39:19.341Z,87.71
2019-04-04T05:40:19.465Z,87.99
2019-04-04T05:41:19.605Z,87.90
2019-04-04T05:42:19.750Z,88.42
2019-04-04T05:43:19.848Z,89.00
2019-04-04T05:44:19.978Z,88.80
2019-04-04T05:45:20.102Z,89.47
2019-04-04T05:46:20.248Z,89.94
2019-04-04T05:47:22.889Z,89.75
2019-04-04T05:48:20.485Z,90.14
2019-04-04T05:49:20.609Z,89.94
2019-04-04T05:50:20.749Z,90.14
2019-04-04T05:51:20.883Z,90.04
2019-04-04T05:52:21.006Z,90.04
2019-04-04T05:53:21.642Z,90.37
2019-04-04T05:54:21.279Z,90.47
2019-04-04T05:55:21.393Z,90.08
2019-04-04T05:56:24.132Z,89.99
2019-04-04T05:57:21.652Z,89.80
2019-04-04T05:58:22.601Z,89.80
2019-04-04T05:59:23.821Z,90.18
2019-04-04T06:00:22.029Z,89.89
2019-04-04T06:01:22.243Z,89.70
2019-04-04T06:02:22.307Z,90.18
2019-04-04T06:03:22.434Z,89.51
2019-04-04T06:04:22.591Z,89.42
2019-04-04T06:05:22.694Z,88.85
2019-04-04T06:06:22.816Z,89.23
2019-04-04T06:07:22.966Z,89.23
2019-04-04T06:08:23.064Z,89.23
2019-04-04T06:09:23.214Z,88.75
2019-04-04T06:10:23.338Z,89.42
2019-04-04T06:11:23.492Z,89.27
2019-04-04T06:12:25.195Z,89.42
2019-04-04T06:13:25.002Z,89.04
2019-04-04T06:14:23.869Z,88.85
2019-04-04T06:15:23.995Z,89.61
2019-04-04T06:16:24.124Z,89.61
2019-04-04T06:17:26.921Z,89.42
2019-04-04T06:18:24.403Z,89.65
2019-04-04T06:19:24.530Z,89.75
2019-04-04T06:20:24.661Z,89.75
2019-04-04T06:21:24.787Z,89.27
2019-04-04T06:22:24.915Z,89.23
2019-04-04T06:23:25.745Z,88.79
2019-04-04T06:24:27.281Z,89.18
2019-04-04T06:25:25.336Z,89.27
2019-04-04T06:26:25.466Z,88.37
2019-04-04T06:27:25.627Z,88.60
2019-04-04T06:28:25.754Z,88.51
2019-04-04T06:29:25.882Z,88.42
2019-04-04T06:30:25.997Z,88.32
2019-04-04T06:31:27.977Z,88.89
2019-04-04T06:32:26.302Z,88.60
2019-04-04T06:33:26.434Z,88.42
2019-04-04T06:34:26.569Z,88.13
2019-04-04T06:35:26.692Z,87.75
2019-04-04T06:36:26.819Z,88.13
2019-04-04T06:37:26.943Z,88.04
2019-04-04T06:38:27.105Z,88.42
2019-04-04T06:39:27.203Z,88.23
2019-04-04T06:40:28.157Z,88.42
2019-04-04T06:41:28.338Z,88.23
2019-04-04T06:42:27.579Z,88.32
2019-04-04T06:43:27.701Z,88.51
2019-04-04T06:44:27.833Z,88.51
2019-04-04T06:45:29.684Z,88.23
2019-04-04T06:46:28.140Z,88.51
2019-04-04T06:47:28.274Z,88.42
2019-04-04T06:48:29.342Z,87.85
2019-04-04T06:49:28.930Z,87.94
2019-04-04T06:50:28.689Z,88.13
2019-04-04T06:51:28.814Z,88.23
2019-04-04T06:52:28.938Z,87.75
2019-04-04T06:53:29.065Z,87.94
2019-04-04T06:54:29.192Z,88.04
2019-04-04T06:55:29.558Z,87.94
2019-04-04T06:56:31.834Z,87.85
2019-04-04T06:57:29.612Z,88.23
2019-04-04T06:58:29.730Z,87.75
2019-04-04T06:59:29.868Z,87.94
2019-04-04T07:00:30.039Z,87.37
2019-04-04T07:01:30.125Z,87.18
2019-04-04T07:02:30.277Z,87.18
2019-04-04T07:03:30.385Z,87.08
2019-04-04T07:04:31.867Z,87.18
2019-04-04T07:05:30.655Z,86.99
2019-04-04T07:06:30.789Z,86.99
2019-04-04T07:07:30.914Z,87.18
2019-04-04T07:08:31.038Z,87.18
2019-04-04T07:09:31.161Z,87.46
2019-04-04T07:10:31.294Z,87.18
2019-04-04T07:11:34.797Z,87.46
2019-04-04T07:12:31.554Z,86.90
2019-04-04T07:13:41.836Z,86.42
2019-04-04T07:14:45.158Z,86.51
2019-04-04T07:15:31.948Z,86.61
2019-04-04T07:16:32.075Z,86.61
2019-04-04T07:17:32.204Z,86.42
2019-04-04T07:18:32.388Z,86.42
2019-04-04T07:19:32.463Z,86.90
2019-04-04T07:20:32.590Z,86.42
2019-04-04T07:21:32.718Z,86.70
2019-04-04T07:22:32.843Z,86.32
2019-04-04T07:23:32.974Z,86.70
2019-04-04T07:24:33.105Z,86.90
2019-04-04T07:25:35.698Z,86.70
2019-04-04T07:26:33.359Z,86.70
2019-04-04T07:27:33.483Z,86.61
2019-04-04T07:28:33.627Z,86.70
2019-04-04T07:29:33.740Z,86.22
2019-04-04T07:30:33.867Z,86.32
2019-04-04T07:31:38.040Z,86.70
2019-04-04T07:32:34.118Z,86.90
2019-04-04T07:33:34.253Z,86.61
2019-04-04T07:34:34.380Z,86.61
2019-04-04T07:35:34.508Z,86.70
2019-04-04T07:36:34.634Z,86.42
2019-04-04T07:37:34.766Z,86.46
2019-04-04T07:38:35.149Z,86.04
2019-04-04T07:39:35.036Z,86.32
2019-04-04T07:40:37.035Z,86.46
2019-04-04T07:41:35.281Z,86.46
2019-04-04T07:42:35.410Z,86.55
2019-04-04T07:43:35.541Z,86.55
2019-04-04T07:44:35.670Z,86.55
2019-04-04T07:45:35.805Z,86.36
2019-04-04T07:46:35.928Z,86.65
2019-04-04T07:47:36.065Z,85.89
2019-04-04T07:48:36.192Z,85.99
2019-04-04T07:49:36.319Z,85.32
2019-04-04T07:50:36.455Z,85.60
2019-04-04T07:51:36.583Z,85.80
2019-04-04T07:52:36.708Z,85.60
2019-04-04T07:53:37.128Z,85.80
2019-04-04T07:54:38.534Z,85.41
2019-04-04T07:55:37.110Z,85.41
2019-04-04T07:56:37.237Z,85.32
2019-04-04T07:57:37.375Z,85.41
2019-04-04T07:58:37.497Z,85.51
2019-04-04T07:59:37.628Z,85.37
2019-04-04T08:00:37.763Z,85.32
2019-04-04T08:01:50.264Z,85.18
2019-04-04T08:02:38.011Z,85.41
2019-04-04T08:03:38.141Z,85.37
2019-04-04T08:04:38.274Z,85.41
2019-04-04T08:05:38.446Z,85.80
2019-04-04T08:06:38.534Z,85.60
2019-04-04T08:07:38.666Z,85.22
2019-04-04T08:08:38.795Z,85.56
2019-04-04T08:09:38.921Z,85.70
2019-04-04T08:10:39.049Z,85.32
2019-04-04T08:11:39.193Z,85.22
2019-04-04T08:12:39.312Z,85.41
2019-04-04T08:13:39.438Z,85.60
2019-04-04T08:14:39.568Z,85.89
2019-04-04T08:15:39.698Z,85.89
2019-04-04T08:16:39.829Z,85.99
2019-04-04T08:17:39.958Z,86.18
2019-04-04T08:18:40.087Z,85.80
2019-04-04T08:19:40.214Z,85.70
2019-04-04T08:20:40.332Z,85.60
2019-04-04T08:21:40.476Z,85.41
2019-04-04T08:22:40.603Z,85.41
2019-04-04T08:23:40.737Z,85.60
2019-04-04T08:24:40.860Z,85.41
2019-04-04T08:25:40.989Z,85.47
2019-04-04T08:26:41.108Z,85.94
2019-04-04T08:27:41.243Z,85.85
2019-04-04T08:28:41.370Z,86.36
2019-04-04T08:29:41.507Z,86.61
2019-04-04T08:30:41.637Z,86.75
2019-04-04T08:31:41.775Z,87.08
2019-04-04T08:32:41.890Z,86.99
2019-04-04T08:33:42.023Z,86.84
2019-04-04T08:34:42.146Z,87.18
2019-04-04T08:35:42.276Z,87.41
2019-04-04T08:36:42.402Z,87.27
2019-04-04T08:37:42.550Z,87.51
2019-04-04T08:38:42.659Z,87.23
2019-04-04T08:39:42.788Z,86.94
2019-04-04T08:40:42.916Z,86.84
2019-04-04T08:41:43.047Z,86.94
2019-04-04T08:42:43.184Z,86.84
2019-04-04T08:43:43.315Z,86.75
2019-04-04T08:44:43.444Z,86.75
2019-04-04T08:45:43.575Z,86.65
2019-04-04T08:46:43.716Z,86.84
2019-04-04T08:47:43.862Z,86.75
2019-04-04T08:48:43.982Z,86.36
2019-04-04T08:49:44.099Z,86.65
2019-04-04T08:50:44.230Z,86.08
2019-04-04T08:51:44.367Z,86.08
2019-04-04T08:52:44.490Z,86.46
2019-04-04T08:53:44.615Z,86.65
2019-04-04T08:54:44.747Z,86.75
2019-04-04T08:55:44.872Z,86.55
2019-04-04T08:56:45.014Z,86.55
2019-04-04T08:57:45.139Z,86.46
2019-04-04T08:58:45.270Z,86.94
2019-04-04T08:59:45.406Z,86.94
2019-04-04T09:00:45.526Z,86.94
2019-04-04T09:01:45.648Z,86.94
2019-04-04T09:02:45.779Z,87.32
2019-04-04T09:03:45.913Z,87.51
2019-04-04T09:04:46.039Z,86.84
2019-04-04T09:05:46.169Z,86.84
2019-04-04T09:06:46.302Z,86.75
2019-04-04T09:07:46.430Z,86.46
2019-04-04T09:08:46.561Z,86.46
2019-04-04T09:09:46.736Z,86.27
2019-04-04T09:10:46.817Z,86.94
2019-04-04T09:11:46.951Z,86.27
2019-04-04T09:12:47.086Z,86.55
2019-04-04T09:13:47.223Z,86.94
2019-04-04T09:14:47.346Z,86.65
2019-04-04T09:15:47.473Z,86.69
2019-04-04T09:16:47.601Z,86.65
2019-04-04T09:17:47.733Z,86.60
2019-04-04T09:18:47.860Z,86.69
2019-04-04T09:19:47.994Z,86.79
2019-04-04T09:20:48.116Z,86.75
2019-04-04T09:21:48.242Z,86.84
2019-04-04T09:22:48.377Z,86.88
2019-04-04T09:23:48.522Z,87.17
2019-04-04T09:24:48.652Z,86.51
2019-04-04T09:25:48.782Z,86.27
2019-04-04T09:26:48.907Z,86.84
2019-04-04T09:27:49.036Z,86.98
2019-04-04T09:28:49.168Z,86.98
2019-04-04T09:29:49.302Z,86.88
2019-04-04T09:30:49.427Z,86.88
2019-04-04T09:31:49.561Z,87.46
2019-04-04T09:32:49.693Z,87.07
2019-04-04T09:33:49.815Z,87.27
2019-04-04T09:34:49.948Z,87.07
2019-04-04T09:35:50.075Z,87.17
2019-04-04T09:36:50.216Z,87.46
2019-04-04T09:37:50.341Z,87.51
2019-04-04T09:38:50.469Z,87.32
2019-04-04T09:39:50.601Z,87.23
2019-04-04T09:40:50.732Z,87.32
2019-04-04T09:41:50.860Z,87.79
2019-04-04T09:42:51.004Z,87.79
2019-04-04T09:43:51.126Z,88.18
2019-04-04T09:44:51.249Z,88.37
2019-04-04T09:45:51.377Z,88.56
2019-04-04T09:47:04.617Z,88.56
2019-04-04T09:47:51.635Z,88.56
2019-04-04T09:48:51.766Z,88.27
2019-04-04T09:49:51.897Z,88.27
2019-04-04T09:50:52.024Z,88.08
2019-04-04T09:51:52.162Z,88.37
2019-04-04T09:52:52.286Z,88.46
2019-04-04T09:53:53.632Z,88.37
2019-04-04T09:54:52.541Z,89.13
2019-04-04T09:55:52.678Z,88.93
2019-04-04T09:56:52.811Z,89.13
2019-04-04T09:57:52.929Z,89.03
2019-04-04T09:58:54.866Z,89.61
2019-04-04T09:59:53.201Z,89.32
2019-04-04T10:00:53.319Z,89.89
2019-04-04T10:01:53.445Z,89.79
2019-04-04T10:02:53.587Z,89.98
2019-04-04T10:03:53.726Z,89.98
2019-04-04T10:04:53.837Z,90.65
2019-04-04T10:05:53.966Z,90.56
2019-04-04T10:06:54.098Z,90.27
2019-04-04T10:07:54.238Z,89.89
2019-04-04T10:08:54.359Z,89.89
2019-04-04T10:09:54.483Z,90.36
2019-04-04T10:10:54.603Z,90.56
2019-04-04T10:11:54.747Z,90.17
2019-04-04T10:12:54.873Z,89.98
2019-04-04T10:13:54.997Z,89.89
2019-04-04T10:14:55.126Z,89.79
2019-04-04T10:15:55.275Z,89.41
2019-04-04T10:16:55.391Z,89.32
2019-04-04T10:17:55.535Z,89.51
2019-04-04T10:18:55.654Z,89.61
2019-04-04T10:19:55.798Z,90.17
2019-04-04T10:20:55.914Z,89.79
2019-04-04T10:21:56.041Z,90.08
2019-04-04T10:22:56.183Z,89.89
2019-04-04T10:23:56.291Z,89.98
2019-04-04T10:24:56.416Z,89.98
2019-04-04T10:25:56.549Z,89.89
2019-04-04T10:26:56.672Z,89.98
2019-04-04T10:27:56.788Z,89.89
2019-04-04T10:28:56.922Z,89.70
2019-04-04T10:29:57.048Z,89.98
2019-04-04T10:30:57.185Z,90.17
2019-04-04T10:31:57.321Z,91.13
2019-04-04T10:32:57.447Z,90.75
2019-04-04T10:33:57.576Z,90.27
2019-04-04T10:34:57.707Z,90.27
2019-04-04T10:35:57.836Z,90.08
2019-04-04T10:36:57.966Z,90.27
2019-04-04T10:37:58.093Z,90.75
2019-04-04T10:38:58.235Z,90.36
2019-04-04T10:39:58.364Z,90.94
2019-04-04T10:40:58.494Z,90.84
2019-04-04T10:41:58.610Z,91.31
2019-04-04T10:42:58.745Z,91.22
2019-04-04T10:43:58.879Z,91.13
2019-04-04T10:44:59.004Z,91.31
2019-04-04T10:45:59.123Z,91.51
2019-04-04T10:46:59.258Z,91.89
2019-04-04T10:47:59.379Z,92.27
2019-04-04T10:48:59.510Z,92.55
2019-04-04T10:49:59.642Z,92.18
2019-04-04T10:50:59.778Z,92.36
2019-04-04T10:51:59.902Z,91.51
2019-04-04T10:53:00.039Z,91.89
2019-04-04T10:54:00.166Z,92.08
2019-04-04T10:55:01.625Z,91.51
2019-04-04T10:56:00.434Z,91.31
2019-04-04T10:57:00.553Z,91.41
2019-04-04T10:58:00.684Z,90.84
2019-04-04T10:59:00.814Z,90.94
2019-04-04T11:00:03.206Z,91.41
2019-04-04T11:01:01.065Z,91.41
2019-04-04T11:02:01.202Z,90.94
2019-04-04T11:03:01.325Z,90.75
2019-04-04T11:04:01.460Z,90.65
2019-04-04T11:05:01.586Z,90.65
2019-04-04T11:06:01.729Z,90.17
2019-04-04T11:07:01.849Z,89.98
2019-04-04T11:08:01.973Z,90.27
2019-04-04T11:09:02.113Z,90.36
2019-04-04T11:10:02.248Z,89.98
2019-04-04T11:11:02.376Z,89.84
2019-04-04T11:12:02.503Z,90.22
2019-04-04T11:13:03.093Z,90.41
2019-04-04T11:14:02.772Z,90.12
2019-04-04T11:15:02.904Z,89.79
2019-04-04T11:16:03.036Z,90.12
2019-04-04T11:17:03.174Z,89.46
2019-04-04T11:18:03.303Z,89.94
2019-04-04T11:19:03.418Z,89.36
2019-04-04T11:20:03.561Z,89.55
2019-04-04T11:21:03.694Z,89.46
2019-04-04T11:22:03.881Z,89.65
2019-04-04T11:23:03.954Z,89.55
2019-04-04T11:24:04.100Z,89.55
2019-04-04T11:25:04.294Z,89.17
2019-04-04T11:26:04.359Z,89.07
2019-04-04T11:27:04.580Z,88.98
2019-04-04T11:28:04.607Z,89.17
2019-04-04T11:29:04.816Z,88.60
2019-04-04T11:30:04.865Z,88.60
2019-04-04T11:31:04.992Z,88.60
2019-04-04T11:32:05.129Z,88.60
2019-04-04T11:33:05.257Z,88.31
2019-04-04T11:34:05.387Z,88.51
2019-04-04T11:35:05.512Z,88.51
2019-04-04T11:36:05.643Z,88.22
2019-04-04T11:37:05.776Z,88.31
2019-04-04T11:38:05.912Z,88.12
2019-04-04T11:39:06.036Z,88.60
2019-04-04T11:40:06.157Z,88.03
2019-04-04T11:41:06.294Z,88.60
2019-04-04T11:42:06.425Z,88.60
2019-04-04T11:43:06.569Z,88.41
2019-04-04T11:44:06.720Z,88.60
2019-04-04T11:45:06.830Z,88.51
2019-04-04T11:46:06.951Z,89.07
2019-04-04T11:47:07.085Z,88.51
2019-04-04T11:48:07.226Z,88.60
2019-04-04T11:49:07.364Z,88.89
2019-04-04T11:50:07.497Z,89.17
2019-04-04T11:51:07.666Z,89.36
2019-04-04T11:52:07.786Z,89.65
2019-04-04T11:53:07.921Z,89.75
2019-04-04T11:54:08.077Z,89.55
2019-04-04T11:55:08.190Z,89.55
2019-04-04T11:56:08.344Z,89.65
2019-04-04T11:57:08.526Z,89.46
2019-04-04T11:58:08.599Z,89.65
2019-04-04T11:59:08.732Z,89.75
2019-04-04T12:00:08.856Z,89.75
2019-04-04T12:01:08.998Z,88.89
2019-04-04T12:02:09.132Z,88.89
2019-04-04T12:03:09.248Z,89.17
2019-04-04T12:04:09.373Z,89.17
2019-04-04T12:05:09.498Z,89.17
2019-04-04T12:06:09.677Z,89.07
2019-04-04T12:07:09.805Z,88.41
2019-04-04T12:08:09.938Z,88.51
2019-04-04T12:09:10.070Z,88.31
2019-04-04T12:10:10.213Z,88.03
2019-04-04T12:11:10.329Z,87.93
2019-04-04T12:12:10.466Z,88.41
2019-04-04T12:13:10.599Z,88.51
2019-04-04T12:14:10.777Z,87.84
2019-04-04T12:15:10.858Z,88.22
2019-04-04T12:16:10.990Z,88.07
2019-04-04T12:17:11.121Z,88.03
2019-04-04T12:18:11.292Z,88.41
2019-04-04T12:19:11.413Z,88.60
2019-04-04T12:20:11.545Z,88.41
2019-04-04T12:21:11.666Z,88.60
2019-04-04T12:22:12.110Z,88.22
2019-04-04T12:23:12.067Z,88.12
2019-04-04T12:24:12.065Z,87.84
2019-04-04T12:25:12.200Z,87.93
2019-04-04T12:26:12.356Z,87.36
2019-04-04T12:27:12.513Z,87.84
2019-04-04T12:28:12.630Z,88.60
2019-04-04T12:29:12.768Z,89.17
2019-04-04T12:30:12.933Z,89.36
2019-04-04T12:31:13.061Z,89.07
2019-04-04T12:32:13.204Z,88.79
2019-04-04T12:33:13.347Z,88.22
2019-04-04T12:34:13.481Z,88.45
2019-04-04T12:35:13.613Z,88.31
2019-04-04T12:36:24.006Z,88.03
2019-04-04T12:37:13.940Z,88.36
2019-04-04T12:38:14.033Z,87.65
2019-04-04T12:39:14.161Z,87.36
2019-04-04T12:40:20.479Z,87.17
2019-04-04T12:41:14.480Z,87.60
2019-04-04T12:42:14.559Z,87.50
2019-04-04T12:43:14.690Z,87.21
2019-04-04T12:44:14.829Z,87.40
2019-04-04T12:45:14.965Z,86.93
2019-04-04T12:46:15.076Z,87.12
2019-04-04T12:47:15.207Z,87.40
2019-04-04T12:48:15.346Z,87.60
2019-04-04T12:49:15.472Z,87.31
2019-04-04T12:50:15.594Z,87.40
2019-04-04T12:51:15.718Z,87.50
2019-04-04T12:52:15.842Z,87.31
2019-04-04T12:53:15.995Z,87.60
2019-04-04T12:54:16.122Z,87.50